Terminal Aerodrome Forecast
Issued by NWS

Home | Current Version | Previous Version | Graphics & Text | Print | Product List | Glossary On
Versions: 1 2 3 4 5 6 7 8 9 10 11 12 13 14 15 16 17 18 19 20 21 22 23
000
FTUS43 KBIS 050755 AAA
TAFJMS
TAF AMD
KJMS 050755Z 0508/0606 18008KT P6SM SCT100
     FM051100 VRB05KT P6SM SCT060 SCT100
     FM051700 01012KT P6SM VCTS SCT030 BKN050CB BKN100
     FM052000 01015KT P6SM -SHRA VCTS SCT025 BKN035CB OVC050
     FM060300 36012KT P6SM BKN035 OVC050=

USA.gov is the U.S. government's official web portal to all federal, state and local government web resources and services.